| time (UTC) | temp C | wind direction | speed KPH | gust KPH | rain 1hr cm | rain 24hr cm | rain mn cm | humidity % | barometer mb |
| 20260508185248 | 16 | 215 | 19.3 | 22.5 | 0.00 | 0.00 | 0.00 | 50 | 1009.2 |
| 20260508184745 | 16 | 230 | 24.1 | 27.4 | 0.00 | 0.00 | 0.00 | 47 | 1009.2 |
| 20260508184242 | 16 | 230 | 22.5 | 25.7 | 0.00 | 0.00 | 0.00 | 47 | 1009.4 |
| 20260508183739 | 15 | 211 | 20.9 | 24.1 | 0.00 | 0.00 | 0.00 | 56 | 1009.7 |
| 20260508183235 | 15 | 231 | 25.7 | 29.0 | 0.00 | 0.00 | 0.00 | 56 | 1009.5 |
| 20260508182731 | 15 | 212 | 20.9 | 24.1 | 0.00 | 0.00 | 0.00 | 59 | 1009.4 |
| 20260508182228 | 15 | 220 | 25.7 | 32.2 | 0.00 | 0.00 | 0.00 | 58 | 1009.3 |
| 20260508181724 | 15 | 217 | 17.7 | 20.9 | 0.00 | 0.00 | 0.00 | 61 | 1009.7 |
| 20260508181221 | 15 | 211 | 22.5 | 24.1 | 0.00 | 0.00 | 0.00 | 58 | 1009.8 |
| 20260508180717 | 16 | 215 | 22.5 | 25.7 | 0.00 | 0.00 | 0.00 | 59 | 1009.5 |
| 20260508180215 | 15 | 221 | 24.1 | 29.0 | 0.00 | 0.00 | 0.00 | 57 | 1009.7 |
| 20260508175711 | 15 | 203 | 22.5 | 25.7 | 0.00 | 0.00 | 0.00 | 60 | 1009.4 |
| 20260508175208 | 16 | 210 | 27.4 | 32.2 | 0.00 | 0.00 | 0.00 | 57 | 1009.6 |
| 20260508174706 | 16 | 240 | 24.1 | 25.7 | 0.00 | 0.00 | 0.00 | 56 | 1010.1 |
| 20260508174203 | 16 | 230 | 14.5 | 16.1 | 0.00 | 0.00 | 0.00 | 56 | 1009.8 |
| 20260508173659 | 15 | 223 | 17.7 | 20.9 | 0.00 | 0.00 | 0.00 | 60 | 1009.9 |
| 20260508173155 | 15 | 224 | 20.9 | 24.1 | 0.00 | 0.00 | 0.00 | 58 | 1010.1 |
| 20260508172652 | 15 | 210 | 14.5 | 17.7 | 0.00 | 0.00 | 0.00 | 61 | 1009.9 |
| 20260508172149 | 15 | 222 | 19.3 | 22.5 | 0.00 | 0.00 | 0.00 | 60 | 1010.2 |
| 20260508171645 | 16 | 227 | 17.7 | 25.7 | 0.00 | 0.00 | 0.00 | 62 | 1010.2 |
| 20260508171141 | 15 | 212 | 17.7 | 20.9 | 0.00 | 0.00 | 0.00 | 60 | 1010.2 |
| 20260508170639 | 15 | 214 | 16.1 | 22.5 | 0.00 | 0.00 | 0.00 | 62 | 1010.3 |
| 20260508170136 | 15 | 230 | 16.1 | 17.7 | 0.00 | 0.00 | 0.00 | 62 | 1010.3 |
| 20260508165633 | 15 | 231 | 12.9 | 16.1 | 0.00 | 0.00 | 0.00 | 62 | 1010.6 |
| 20260508165131 | 15 | 217 | 12.9 | 14.5 | 0.00 | 0.00 | 0.00 | 62 | 1010.7 |
| 20260508164626 | 15 | 248 | 11.3 | 12.9 | 0.00 | 0.00 | 0.00 | 63 | 1010.8 |
| 20260508164118 | 15 | 249 | 16.1 | 20.9 | 0.00 | 0.00 | 0.00 | 66 | 1010.7 |
| 20260508163616 | 13 | 221 | 22.5 | 24.1 | 0.00 | 0.00 | 0.00 | 67 | 1010.9 |
| 20260508163112 | 14 | 217 | 22.5 | 24.1 | 0.00 | 0.00 | 0.00 | 66 | 1010.8 |
| 20260508162609 | 13 | 246 | 14.5 | 16.1 | 0.00 | 0.00 | 0.00 | 65 | 1010.9 |
| 20260508162106 | 13 | 192 | 12.9 | 16.1 | 0.00 | 0.00 | 0.00 | 66 | 1011.3 |
| 20260508161603 | 13 | 242 | 17.7 | 20.9 | 0.00 | 0.00 | 0.00 | 69 | 1011.2 |
| 20260508161100 | 13 | 224 | 17.7 | 20.9 | 0.00 | 0.00 | 0.00 | 67 | 1011.3 |
| 20260508160559 | 13 | 226 | 19.3 | 20.9 | 0.00 | 0.00 | 0.00 | 66 | 1011.4 |
| 20260508160055 | 13 | 221 | 14.5 | 16.1 | 0.00 | 0.00 | 0.00 | 67 | 1011.1 |
| 20260508155552 | 13 | 199 | 17.7 | 17.7 | 0.00 | 0.00 | 0.00 | 69 | 1011.2 |
| 20260508155049 | 13 | 212 | 8.0 | 9.7 | 0.00 | 0.00 | 0.00 | 67 | 1011.2 |
| 20260508154546 | 13 | 235 | 11.3 | 12.9 | 0.00 | 0.00 | 0.00 | 67 | 1011.2 |
| 20260508154043 | 13 | 235 | 16.1 | 16.1 | 0.00 | 0.00 | 0.00 | 65 | 1011.4 |
| 20260508153540 | 13 | 222 | 11.3 | 12.9 | 0.00 | 0.00 | 0.00 | 67 | 1011.2 |
| 20260508153036 | 12 | 241 | 16.1 | 16.1 | 0.00 | 0.00 | 0.00 | 67 | 1011.4 |
| 20260508152534 | 12 | 216 | 14.5 | 16.1 | 0.00 | 0.00 | 0.00 | 68 | 1011.3 |
| 20260508152029 | 13 | 204 | 11.3 | 12.9 | 0.00 | 0.00 | 0.00 | 69 | 1011.2 |
| 20260508151526 | 12 | 220 | 8.0 | 8.0 | 0.00 | 0.00 | 0.00 | 71 | 1011.3 |
| 20260508151022 | 12 | 186 | 11.3 | 12.9 | 0.00 | 0.00 | 0.00 | 70 | 1011.2 |
| 20260508150520 | 12 | 225 | 14.5 | 17.7 | 0.00 | 0.00 | 0.00 | 70 | 1011.2 |
| 20260508150015 | 12 | 224 | 11.3 | 16.1 | 0.00 | 0.00 | 0.00 | 68 | 1011.2 |
| 20260508145513 | 13 | 200 | 12.9 | 14.5 | 0.00 | 0.00 | 0.00 | 71 | 1011.2 |
| 20260508145009 | 12 | 232 | 8.0 | 11.3 | 0.00 | 0.00 | 0.00 | 67 | 1011.4 |
| 20260508144506 | 12 | 218 | 6.4 | 9.7 | 0.00 | 0.00 | 0.00 | 69 | 1011.2 |
| 20260508144003 | 12 | 236 | 3.2 | 3.2 | 0.00 | 0.00 | 0.00 | 68 | 1011.4 |
| 20260508143500 | 12 | 344 | 4.8 | 4.8 | 0.00 | 0.00 | 0.00 | 68 | 1011.1 |
| 20260508142951 | 12 | 61 | 3.2 | 3.2 | 0.00 | 0.00 | 0.00 | 67 | 1011.4 |
| 20260508142449 | 12 | 294 | 4.8 | 4.8 | 0.00 | 0.00 | 0.00 | 67 | 1011.2 |
| 20260508141945 | 12 | 22 | 0.0 | 0.0 | 0.00 | 0.00 | 0.00 | 69 | 1011.1 |
| 20260508141442 | 13 | 308 | 8.0 | 11.3 | 0.00 | 0.00 | 0.00 | 66 | 1011.1 |
| 20260508140939 | 12 | 9 | 1.6 | 1.6 | 0.00 | 0.00 | 0.00 | 68 | 1011.2 |
| 20260508140436 | 12 | 216 | 6.4 | 9.7 | 0.00 | 0.00 | 0.00 | 69 | 1011.6 |
| 20260508135932 | 12 | 245 | 8.0 | 9.7 | 0.00 | 0.00 | 0.00 | 69 | 1011.5 |
| 20260508135429 | 12 | 221 | 14.5 | 14.5 | 0.00 | 0.00 | 0.00 | 70 | 1011.3 |
| 20260508134925 | 12 | 236 | 8.0 | 9.7 | 0.00 | 0.00 | 0.00 | 70 | 1011.4 |
| 20260508134421 | 12 | 244 | 11.3 | 12.9 | 0.00 | 0.00 | 0.00 | 71 | 1011.8 |
| 20260508133918 | 11 | 292 | 6.4 | 8.0 | 0.00 | 0.00 | 0.00 | 72 | 1011.4 |
| 20260508133416 | 11 | 242 | 8.0 | 9.7 | 0.00 | 0.00 | 0.00 | 72 | 1011.5 |
| 20260508132913 | 11 | 281 | 4.8 | 4.8 | 0.00 | 0.00 | 0.00 | 72 | 1011.6 |
| 20260508132411 | 11 | 313 | 8.0 | 9.7 | 0.00 | 0.00 | 0.00 | 72 | 1011.4 |
| 20260508131907 | 11 | 302 | 11.3 | 12.9 | 0.00 | 0.00 | 0.00 | 73 | 1011.6 |
| 20260508131403 | 11 | 306 | 12.9 | 12.9 | 0.00 | 0.00 | 0.00 | 75 | 1011.6 |
| 20260508130900 | 11 | 246 | 8.0 | 9.7 | 0.00 | 0.00 | 0.00 | 75 | 1011.5 |
| 20260508130356 | 11 | 249 | 11.3 | 12.9 | 0.00 | 0.00 | 0.00 | 76 | 1011.5 |
| 20260508125852 | 11 | 261 | 11.3 | 14.5 | 0.00 | 0.00 | 0.00 | 75 | 1011.6 |
| 20260508125348 | 10 | 339 | 9.7 | 11.3 | 0.00 | 0.00 | 0.00 | 76 | 1011.7 |
| 20260508124847 | 10 | 276 | 9.7 | 11.3 | 0.00 | 0.00 | 0.00 | 76 | 1011.5 |
| 20260508124343 | 10 | 262 | 6.4 | 8.0 | 0.00 | 0.00 | 0.00 | 76 | 1011.6 |
| 20260508123842 | 10 | 251 | 16.1 | 17.7 | 0.00 | 0.00 | 0.00 | 77 | 1011.6 |
| 20260508123340 | 10 | 239 | 8.0 | 9.7 | 0.00 | 0.00 | 0.00 | 77 | 1012.0 |
| 20260508122836 | 10 | 244 | 14.5 | 14.5 | 0.00 | 0.00 | 0.00 | 78 | 1011.7 |
| 20260508122333 | 10 | 235 | 17.7 | 22.5 | 0.00 | 0.00 | 0.00 | 78 | 1011.9 |
| 20260508121830 | 10 | 248 | 8.0 | 11.3 | 0.00 | 0.00 | 0.00 | 79 | 1011.8 |
| 20260508121329 | 9 | 260 | 14.5 | 16.1 | 0.00 | 0.00 | 0.00 | 79 | 1011.6 |
| 20260508120826 | 9 | 242 | 12.9 | 14.5 | 0.00 | 0.00 | 0.00 | 79 | 1011.4 |
| 20260508120324 | 9 | 240 | 8.0 | 11.3 | 0.00 | 0.00 | 0.00 | 79 | 1011.7 |
| 20260508115821 | 9 | 236 | 12.9 | 12.9 | 0.00 | 0.00 | 0.00 | 81 | 1011.4 |
| 20260508115318 | 8 | 294 | 4.8 | 4.8 | 0.00 | 0.00 | 0.00 | 81 | 1011.3 |
| 20260508114815 | 8 | 272 | 6.4 | 8.0 | 0.00 | 0.00 | 0.00 | 81 | 1011.0 |
| 20260508114311 | 8 | 251 | 8.0 | 9.7 | 0.00 | 0.00 | 0.00 | 81 | 1011.1 |
| 20260508113808 | 8 | 244 | 4.8 | 4.8 | 0.00 | 0.00 | 0.00 | 83 | 1011.3 |
| 20260508113307 | 8 | 216 | 6.4 | 8.0 | 0.00 | 0.00 | 0.00 | 83 | 1010.9 |
| 20260508112803 | 8 | 224 | 4.8 | 4.8 | 0.00 | 0.00 | 0.00 | 85 | 1011.2 |
| 20260508112300 | 7 | 229 | 6.4 | 8.0 | 0.00 | 0.00 | 0.00 | 86 | 1011.1 |
| 20260508111756 | 7 | 224 | 6.4 | 8.0 | 0.00 | 0.00 | 0.00 | 86 | 1011.2 |
| 20260508111254 | 7 | 215 | 4.8 | 4.8 | 0.00 | 0.00 | 0.00 | 86 | 1011.0 |
| 20260508110750 | 7 | 228 | 4.8 | 4.8 | 0.00 | 0.00 | 0.00 | 86 | 1011.0 |
| 20260508110248 | 7 | 234 | 6.4 | 8.0 | 0.00 | 0.00 | 0.00 | 86 | 1010.9 |
| 20260508105742 | 7 | 233 | 8.0 | 9.7 | 0.00 | 0.00 | 0.00 | 86 | 1010.9 |
| 20260508105239 | 7 | 233 | 6.4 | 8.0 | 0.00 | 0.00 | 0.00 | 85 | 1010.8 |
| 20260508104736 | 7 | 214 | 8.0 | 9.7 | 0.00 | 0.00 | 0.00 | 85 | 1010.8 |
| 20260508104233 | 7 | 211 | 8.0 | 8.0 | 0.00 | 0.00 | 0.00 | 85 | 1010.7 |
| 20260508103731 | 7 | 204 | 11.3 | 11.3 | 0.00 | 0.00 | 0.00 | 86 | 1010.9 |
| 20260508103227 | 7 | 208 | 9.7 | 11.3 | 0.00 | 0.00 | 0.00 | 86 | 1010.7 |
| 20260508102724 | 7 | 212 | 9.7 | 9.7 | 0.00 | 0.00 | 0.00 | 87 | 1010.5 |
| 20260508102222 | 7 | 208 | 6.4 | 8.0 | 0.00 | 0.00 | 0.00 | 86 | 1010.8 |
| 20260508101719 | 7 | 224 | 4.8 | 4.8 | 0.00 | 0.00 | 0.00 | 86 | 1010.8 |
| 20260508101217 | 7 | 217 | 6.4 | 8.0 | 0.00 | 0.00 | 0.00 | 86 | 1010.9 |
| 20260508100714 | 7 | 223 | 6.4 | 8.0 | 0.00 | 0.00 | 0.00 | 85 | 1011.0 |
| 20260508100212 | 7 | 223 | 8.0 | 9.7 | 0.00 | 0.00 | 0.00 | 86 | 1010.9 |
| 20260508095708 | 7 | 224 | 8.0 | 8.0 | 0.00 | 0.00 | 0.00 | 85 | 1010.9 |
| 20260508095206 | 7 | 221 | 8.0 | 9.7 | 0.00 | 0.00 | 0.00 | 86 | 1011.0 |
| 20260508094702 | 7 | 215 | 4.8 | 4.8 | 0.00 | 0.00 | 0.00 | 86 | 1010.9 |
| 20260508094159 | 7 | 209 | 6.4 | 8.0 | 0.00 | 0.00 | 0.00 | 87 | 1010.8 |
| 20260508093656 | 6 | 223 | 6.4 | 8.0 | 0.00 | 0.00 | 0.00 | 87 | 1010.8 |
| 20260508093154 | 6 | 207 | 8.0 | 8.0 | 0.00 | 0.00 | 0.00 | 88 | 1010.8 |
| 20260508092651 | 6 | 219 | 6.4 | 8.0 | 0.00 | 0.00 | 0.00 | 88 | 1010.9 |
| 20260508092149 | 6 | 214 | 8.0 | 8.0 | 0.00 | 0.00 | 0.00 | 88 | 1010.6 |
| 20260508091647 | 6 | 212 | 8.0 | 9.7 | 0.00 | 0.00 | 0.00 | 89 | 1010.8 |
| 20260508091143 | 6 | 206 | 4.8 | 4.8 | 0.00 | 0.00 | 0.00 | 87 | 1010.7 |
| 20260508090641 | 6 | 219 | 6.4 | 8.0 | 0.00 | 0.00 | 0.00 | 88 | 1010.9 |
| 20260508090138 | 6 | 215 | 6.4 | 8.0 | 0.00 | 0.00 | 0.00 | 88 | 1010.9 |
| 20260508085634 | 7 | 221 | 9.7 | 11.3 | 0.00 | 0.00 | 0.00 | 87 | 1010.9 |
| 20260508085132 | 7 | 225 | 8.0 | 9.7 | 0.00 | 0.00 | 0.00 | 87 | 1010.9 |
| 20260508084628 | 7 | 228 | 8.0 | 9.7 | 0.00 | 0.00 | 0.00 | 88 | 1010.8 |
| 20260508084125 | 7 | 224 | 9.7 | 9.7 | 0.00 | 0.00 | 0.00 | 87 | 1011.0 |
| 20260508083622 | 7 | 226 | 8.0 | 9.7 | 0.00 | 0.00 | 0.00 | 87 | 1010.8 |
| 20260508083120 | 7 | 234 | 8.0 | 9.7 | 0.00 | 0.00 | 0.00 | 87 | 1010.9 |
| 20260508082615 | 7 | 227 | 8.0 | 8.0 | 0.00 | 0.00 | 0.00 | 88 | 1010.9 |
| 20260508082113 | 7 | 228 | 4.8 | 4.8 | 0.00 | 0.00 | 0.00 | 88 | 1010.9 |
| 20260508081610 | 7 | 233 | 6.4 | 8.0 | 0.00 | 0.00 | 0.00 | 87 | 1011.1 |
| 20260508081106 | 7 | 225 | 6.4 | 8.0 | 0.00 | 0.00 | 0.00 | 86 | 1011.1 |
| 20260508080604 | 7 | 215 | 8.0 | 8.0 | 0.00 | 0.00 | 0.00 | 86 | 1011.1 |
| 20260508075558 | 7 | 230 | 9.7 | 9.7 | 0.00 | 0.00 | 0.00 | 85 | 1010.9 |
| 20260508075055 | 7 | 214 | 8.0 | 9.7 | 0.00 | 0.00 | 0.00 | 86 | 1011.2 |
| 20260508074553 | 7 | 217 | 8.0 | 9.7 | 0.00 | 0.00 | 0.00 | 86 | 1011.0 |
| 20260508074049 | 7 | 219 | 9.7 | 9.7 | 0.00 | 0.00 | 0.00 | 86 | 1011.3 |
| 20260508073547 | 7 | 211 | 9.7 | 9.7 | 0.00 | 0.00 | 0.00 | 86 | 1011.2 |
| 20260508073044 | 6 | 216 | 8.0 | 9.7 | 0.00 | 0.00 | 0.00 | 86 | 1011.1 |
| 20260508072540 | 6 | 216 | 8.0 | 9.7 | 0.00 | 0.00 | 0.00 | 86 | 1011.2 |
| 20260508072037 | 6 | 217 | 6.4 | 8.0 | 0.00 | 0.00 | 0.00 | 86 | 1011.1 |
| 20260508071535 | 6 | 223 | 6.4 | 8.0 | 0.00 | 0.00 | 0.00 | 85 | 1011.4 |
| 20260508071033 | 6 | 223 | 6.4 | 8.0 | 0.00 | 0.00 | 0.00 | 85 | 1011.1 |
| 20260508070530 | 6 | 218 | 4.8 | 4.8 | 0.00 | 0.00 | 0.00 | 85 | 1010.9 |
| 20260508070028 | 6 | 212 | 6.4 | 8.0 | 0.00 | 0.00 | 0.00 | 85 | 1011.3 |
| 20260508065526 | 6 | 216 | 6.4 | 8.0 | 0.00 | 0.00 | 0.00 | 85 | 1011.3 |
| 20260508065024 | 6 | 204 | 4.8 | 4.8 | 0.00 | 0.00 | 0.00 | 85 | 1011.4 |
| 20260508064521 | 6 | 207 | 6.4 | 8.0 | 0.00 | 0.00 | 0.00 | 84 | 1011.5 |
| 20260508064019 | 6 | 219 | 6.4 | 8.0 | 0.00 | 0.00 | 0.00 | 84 | 1011.4 |
| 20260508063516 | 6 | 221 | 8.0 | 8.0 | 0.00 | 0.00 | 0.00 | 83 | 1011.6 |
| 20260508063013 | 7 | 225 | 8.0 | 9.7 | 0.00 | 0.00 | 0.00 | 82 | 1011.3 |
| 20260508062511 | 7 | 216 | 9.7 | 9.7 | 0.00 | 0.00 | 0.00 | 81 | 1011.4 |
| 20260508062007 | 7 | 227 | 12.9 | 12.9 | 0.00 | 0.00 | 0.00 | 81 | 1011.5 |
| 20260508061506 | 7 | 225 | 11.3 | 12.9 | 0.00 | 0.00 | 0.00 | 81 | 1011.4 |
| 20260508061002 | 7 | 221 | 9.7 | 11.3 | 0.00 | 0.00 | 0.00 | 80 | 1011.6 |
| 20260508060459 | 7 | 218 | 9.7 | 11.3 | 0.00 | 0.00 | 0.00 | 80 | 1011.4 |
| 20260508055955 | 7 | 232 | 12.9 | 12.9 | 0.00 | 0.00 | 0.00 | 79 | 1011.4 |
| 20260508055452 | 8 | 218 | 14.5 | 14.5 | 0.00 | 0.00 | 0.00 | 79 | 1011.6 |
| 20260508054948 | 8 | 216 | 14.5 | 14.5 | 0.00 | 0.00 | 0.00 | 79 | 1011.5 |
| 20260508054445 | 8 | 208 | 17.7 | 17.7 | 0.00 | 0.00 | 0.00 | 77 | 1011.7 |
| 20260508053942 | 8 | 226 | 16.1 | 20.9 | 0.00 | 0.00 | 0.00 | 77 | 1011.8 |
| 20260508053439 | 8 | 227 | 17.7 | 20.9 | 0.00 | 0.00 | 0.00 | 77 | 1011.6 |
| 20260508052937 | 8 | 230 | 12.9 | 12.9 | 0.00 | 0.00 | 0.00 | 77 | 1011.5 |
| 20260508052434 | 8 | 226 | 14.5 | 14.5 | 0.00 | 0.00 | 0.00 | 76 | 1011.9 |
| 20260508051930 | 8 | 219 | 17.7 | 20.9 | 0.00 | 0.00 | 0.00 | 75 | 1011.5 |
| 20260508051426 | 8 | 225 | 17.7 | 17.7 | 0.00 | 0.00 | 0.00 | 75 | 1011.5 |
| 20260508050922 | 8 | 228 | 17.7 | 20.9 | 0.00 | 0.00 | 0.00 | 73 | 1011.7 |
| 20260508050419 | 9 | 205 | 17.7 | 20.9 | 0.00 | 0.00 | 0.00 | 72 | 1011.6 |
| 20260508045915 | 9 | 240 | 20.9 | 24.1 | 0.00 | 0.00 | 0.00 | 71 | 1011.5 |
| 20260508045413 | 9 | 213 | 16.1 | 16.1 | 0.00 | 0.00 | 0.00 | 69 | 1011.5 |
| 20260508044911 | 9 | 210 | 17.7 | 20.9 | 0.00 | 0.00 | 0.00 | 69 | 1011.6 |
| 20260508044408 | 9 | 207 | 12.9 | 12.9 | 0.00 | 0.00 | 0.00 | 69 | 1011.4 |
| 20260508043903 | 8 | 219 | 12.9 | 14.5 | 0.00 | 0.00 | 0.00 | 70 | 1011.5 |
| 20260508043401 | 8 | 208 | 11.3 | 11.3 | 0.00 | 0.00 | 0.00 | 71 | 1011.4 |
| 20260508042857 | 8 | 201 | 11.3 | 12.9 | 0.00 | 0.00 | 0.00 | 71 | 1011.5 |
| 20260508042355 | 9 | 226 | 12.9 | 14.5 | 0.00 | 0.00 | 0.00 | 70 | 1011.3 |
| 20260508041851 | 9 | 200 | 11.3 | 12.9 | 0.00 | 0.00 | 0.00 | 71 | 1011.6 |
| 20260508041347 | 9 | 216 | 12.9 | 12.9 | 0.00 | 0.00 | 0.00 | 70 | 1011.5 |
| 20260508040844 | 9 | 206 | 12.9 | 14.5 | 0.00 | 0.00 | 0.00 | 70 | 1011.5 |
| 20260508040341 | 9 | 203 | 11.3 | 11.3 | 0.00 | 0.00 | 0.00 | 70 | 1011.8 |
| 20260508035839 | 9 | 210 | 11.3 | 12.9 | 0.00 | 0.00 | 0.00 | 70 | 1011.6 |
| 20260508035336 | 9 | 205 | 11.3 | 12.9 | 0.00 | 0.00 | 0.00 | 70 | 1011.7 |
| 20260508034833 | 9 | 221 | 11.3 | 12.9 | 0.00 | 0.00 | 0.00 | 70 | 1011.7 |
| 20260508034330 | 9 | 209 | 12.9 | 14.5 | 0.00 | 0.00 | 0.00 | 69 | 1011.6 |
| 20260508033826 | 9 | 218 | 11.3 | 11.3 | 0.00 | 0.00 | 0.00 | 69 | 1011.7 |
| 20260508033325 | 9 | 224 | 12.9 | 14.5 | 0.00 | 0.00 | 0.00 | 69 | 1011.9 |
| 20260508032822 | 9 | 217 | 11.3 | 12.9 | 0.00 | 0.00 | 0.00 | 68 | 1012.0 |
| 20260508032319 | 10 | 222 | 12.9 | 12.9 | 0.00 | 0.00 | 0.00 | 67 | 1011.7 |
| 20260508031816 | 10 | 222 | 12.9 | 14.5 | 0.00 | 0.00 | 0.00 | 67 | 1011.8 |
| 20260508031313 | 9 | 202 | 11.3 | 12.9 | 0.00 | 0.00 | 0.00 | 67 | 1011.8 |
| 20260508030809 | 9 | 222 | 11.3 | 12.9 | 0.00 | 0.00 | 0.00 | 67 | 1012.0 |
| 20260508030307 | 10 | 217 | 14.5 | 14.5 | 0.00 | 0.00 | 0.00 | 65 | 1012.0 |
| 20260508025803 | 10 | 216 | 11.3 | 12.9 | 0.00 | 0.00 | 0.00 | 66 | 1012.0 |
| 20260508025300 | 10 | 211 | 14.5 | 16.1 | 0.00 | 0.00 | 0.00 | 65 | 1012.0 |
| 20260508024756 | 10 | 218 | 12.9 | 12.9 | 0.00 | 0.00 | 0.00 | 66 | 1012.0 |
| 20260508024253 | 10 | 229 | 11.3 | 11.3 | 0.00 | 0.00 | 0.00 | 65 | 1011.7 |
| 20260508023750 | 10 | 226 | 11.3 | 12.9 | 0.00 | 0.00 | 0.00 | 65 | 1012.1 |
| 20260508023247 | 10 | 230 | 12.9 | 14.5 | 0.00 | 0.00 | 0.00 | 64 | 1011.9 |
| 20260508022743 | 10 | 230 | 16.1 | 16.1 | 0.00 | 0.00 | 0.00 | 64 | 1012.2 |
| 20260508022240 | 10 | 222 | 16.1 | 17.7 | 0.00 | 0.00 | 0.00 | 64 | 1012.1 |
| 20260508021737 | 10 | 217 | 16.1 | 16.1 | 0.00 | 0.00 | 0.00 | 63 | 1012.3 |
| 20260508021232 | 10 | 226 | 17.7 | 20.9 | 0.00 | 0.00 | 0.00 | 63 | 1012.1 |
| 20260508020730 | 10 | 224 | 12.9 | 14.5 | 0.00 | 0.00 | 0.00 | 63 | 1012.0 |
| 20260508020227 | 10 | 227 | 14.5 | 16.1 | 0.00 | 0.00 | 0.00 | 62 | 1012.0 |
| 20260508015724 | 10 | 246 | 19.3 | 22.5 | 0.00 | 0.00 | 0.00 | 62 | 1012.0 |
| 20260508015221 | 10 | 228 | 19.3 | 22.5 | 0.00 | 0.00 | 0.00 | 61 | 1012.1 |
| 20260508014718 | 10 | 226 | 20.9 | 22.5 | 0.00 | 0.00 | 0.00 | 60 | 1011.8 |
| 20260508014215 | 10 | 228 | 24.1 | 27.4 | 0.00 | 0.00 | 0.00 | 60 | 1011.8 |
| 20260508013710 | 10 | 215 | 20.9 | 24.1 | 0.00 | 0.00 | 0.00 | 59 | 1011.9 |
| 20260508013207 | 10 | 217 | 25.7 | 27.4 | 0.00 | 0.00 | 0.00 | 57 | 1011.8 |
| 20260508012705 | 10 | 214 | 24.1 | 27.4 | 0.00 | 0.00 | 0.00 | 57 | 1011.6 |
| 20260508012201 | 11 | 226 | 32.2 | 33.8 | 0.00 | 0.00 | 0.00 | 55 | 1011.7 |
| 20260508011700 | 11 | 218 | 33.8 | 35.4 | 0.00 | 0.00 | 0.00 | 54 | 1011.6 |
| 20260508011157 | 11 | 232 | 29.0 | 32.2 | 0.00 | 0.00 | 0.00 | 54 | 1011.5 |
| 20260508010653 | 11 | 221 | 35.4 | 40.2 | 0.00 | 0.00 | 0.00 | 53 | 1011.5 |
| 20260508010151 | 11 | 223 | 35.4 | 40.2 | 0.00 | 0.00 | 0.00 | 51 | 1011.7 |
| 20260508005648 | 11 | 233 | 37.0 | 43.5 | 0.00 | 0.00 | 0.00 | 50 | 1011.6 |
| 20260508005145 | 11 | 209 | 25.7 | 29.0 | 0.00 | 0.00 | 0.00 | 50 | 1011.4 |
| 20260508004640 | 12 | 248 | 30.6 | 33.8 | 0.00 | 0.00 | 0.00 | 47 | 1011.3 |
| 20260508004137 | 12 | 220 | 27.4 | 35.4 | 0.00 | 0.00 | 0.00 | 46 | 1011.0 |
| 20260508003633 | 12 | 229 | 30.6 | 33.8 | 0.00 | 0.00 | 0.00 | 42 | 1011.2 |
| 20260508003131 | 12 | 237 | 14.5 | 16.1 | 0.00 | 0.00 | 0.00 | 41 | 1011.4 |
| 20260508002627 | 13 | 238 | 12.9 | 12.9 | 0.00 | 0.00 | 0.00 | 40 | 1011.0 |
| 20260508002125 | 13 | 246 | 14.5 | 16.1 | 0.00 | 0.00 | 0.00 | 38 | 1011.0 |
| 20260508001620 | 13 | 242 | 20.9 | 22.5 | 0.00 | 0.00 | 0.00 | 36 | 1011.1 |
| 20260508001117 | 13 | 249 | 22.5 | 24.1 | 0.00 | 0.00 | 0.00 | 37 | 1011.0 |
| 20260508000612 | 13 | 246 | 16.1 | 17.7 | 0.00 | 0.00 | 0.00 | 38 | 1010.9 |
| 20260508000110 | 13 | 240 | 4.8 | 4.8 | 0.00 | 0.00 | 0.00 | 40 | 1010.9 |
| 20260507235607 | 13 | 253 | 6.4 | 8.0 | 0.00 | 0.00 | 0.00 | 42 | 1011.0 |
| 20260507235104 | 13 | 238 | 4.8 | 8.0 | 0.00 | 0.00 | 0.00 | 39 | 1010.9 |
| 20260507234600 | 13 | 275 | 4.8 | 4.8 | 0.00 | 0.00 | 0.00 | 39 | 1011.0 |
| 20260507234057 | 13 | 243 | 6.4 | 8.0 | 0.00 | 0.00 | 0.00 | 38 | 1011.0 |
| 20260507233554 | 13 | 268 | 8.0 | 9.7 | 0.00 | 0.00 | 0.00 | 38 | 1010.8 |
| 20260507233053 | 13 | 231 | 9.7 | 12.9 | 0.00 | 0.00 | 0.00 | 37 | 1011.0 |
| 20260507232548 | 13 | 267 | 12.9 | 14.5 | 0.00 | 0.00 | 0.00 | 35 | 1011.0 |
| 20260507232046 | 13 | 293 | 11.3 | 12.9 | 0.00 | 0.00 | 0.00 | 35 | 1011.0 |
| 20260507231542 | 14 | 345 | 8.0 | 12.9 | 0.00 | 0.00 | 0.00 | 33 | 1011.0 |
| 20260507231040 | 14 | 298 | 9.7 | 12.9 | 0.00 | 0.00 | 0.00 | 31 | 1011.0 |
| 20260507230536 | 14 | 246 | 12.9 | 14.5 | 0.00 | 0.00 | 0.00 | 33 | 1011.1 |
| 20260507230033 | 14 | 251 | 8.0 | 11.3 | 0.00 | 0.00 | 0.00 | 33 | 1010.8 |
| 20260507225528 | 13 | 306 | 9.7 | 11.3 | 0.00 | 0.00 | 0.00 | 34 | 1011.0 |
| 20260507225024 | 13 | 302 | 8.0 | 9.7 | 0.00 | 0.00 | 0.00 | 35 | 1011.1 |
| 20260507224520 | 13 | 270 | 16.1 | 20.9 | 0.00 | 0.00 | 0.00 | 36 | 1011.0 |
| 20260507224017 | 14 | 250 | 16.1 | 20.9 | 0.00 | 0.00 | 0.00 | 33 | 1011.0 |
| 20260507223513 | 14 | 289 | 12.9 | 14.5 | 0.00 | 0.00 | 0.00 | 32 | 1011.0 |
| 20260507223010 | 13 | 294 | 11.3 | 12.9 | 0.00 | 0.00 | 0.00 | 36 | 1011.3 |
| 20260507222507 | 13 | 317 | 12.9 | 14.5 | 0.00 | 0.00 | 0.00 | 32 | 1011.3 |
| 20260507222003 | 14 | 295 | 16.1 | 17.7 | 0.00 | 0.00 | 0.00 | 31 | 1011.3 |
| 20260507221500 | 15 | 314 | 16.1 | 17.7 | 0.00 | 0.00 | 0.00 | 31 | 1011.3 |
| 20260507220956 | 15 | 288 | 8.0 | 12.9 | 0.00 | 0.00 | 0.00 | 31 | 1011.1 |
| 20260507220454 | 15 | 259 | 8.0 | 9.7 | 0.00 | 0.00 | 0.00 | 30 | 1011.1 |
| 20260507215951 | 13 | 359 | 14.5 | 14.5 | 0.00 | 0.00 | 0.00 | 31 | 1011.3 |
| 20260507215447 | 13 | 304 | 14.5 | 16.1 | 0.00 | 0.00 | 0.00 | 32 | 1011.1 |
| 20260507214945 | 14 | 285 | 12.9 | 16.1 | 0.00 | 0.00 | 0.00 | 31 | 1011.1 |
| 20260507214442 | 14 | 316 | 17.7 | 24.1 | 0.00 | 0.00 | 0.00 | 35 | 1011.2 |
| 20260507213938 | 14 | 291 | 14.5 | 16.1 | 0.00 | 0.00 | 0.00 | 33 | 1010.9 |
| 20260507213434 | 13 | 314 | 16.1 | 17.7 | 0.00 | 0.00 | 0.00 | 32 | 1011.0 |
| 20260507212931 | 13 | 337 | 24.1 | 25.7 | 0.00 | 0.00 | 0.00 | 32 | 1010.9 |
| 20260507212421 | 13 | 304 | 16.1 | 16.1 | 0.00 | 0.00 | 0.00 | 33 | 1010.8 |
| 20260507211918 | 13 | 318 | 17.7 | 22.5 | 0.00 | 0.00 | 0.00 | 34 | 1010.9 |
| 20260507211415 | 14 | 287 | 29.0 | 32.2 | 0.00 | 0.00 | 0.00 | 30 | 1011.0 |
| 20260507210912 | 14 | 316 | 17.7 | 20.9 | 0.00 | 0.00 | 0.00 | 34 | 1011.2 |
| 20260507210409 | 13 | 302 | 22.5 | 24.1 | 0.00 | 0.00 | 0.00 | 34 | 1011.4 |
| 20260507205905 | 15 | 307 | 17.7 | 20.9 | 0.00 | 0.00 | 0.00 | 34 | 1011.2 |
| 20260507205403 | 14 | 296 | 27.4 | 35.4 | 0.00 | 0.00 | 0.00 | 33 | 1011.3 |
| 20260507204859 | 13 | 300 | 19.3 | 24.1 | 0.00 | 0.00 | 0.00 | 34 | 1011.2 |
| 20260507204355 | 13 | 310 | 27.4 | 32.2 | 0.00 | 0.00 | 0.00 | 33 | 1011.2 |
| 20260507203854 | 14 | 313 | 30.6 | 33.8 | 0.00 | 0.00 | 0.00 | 32 | 1011.3 |
| 20260507203351 | 14 | 283 | 22.5 | 29.0 | 0.00 | 0.00 | 0.00 | 33 | 1011.3 |
| 20260507202847 | 14 | 297 | 24.1 | 33.8 | 0.00 | 0.00 | 0.00 | 33 | 1011.3 |
| 20260507202343 | 14 | 314 | 27.4 | 32.2 | 0.00 | 0.00 | 0.00 | 34 | 1011.4 |
| 20260507201839 | 13 | 315 | 24.1 | 29.0 | 0.00 | 0.00 | 0.00 | 35 | 1011.4 |
| 20260507201335 | 13 | 322 | 27.4 | 33.8 | 0.00 | 0.00 | 0.00 | 35 | 1011.5 |
| 20260507200831 | 14 | 302 | 24.1 | 29.0 | 0.00 | 0.00 | 0.00 | 34 | 1011.4 |
| 20260507200327 | 13 | 313 | 14.5 | 16.1 | 0.00 | 0.00 | 0.00 | 37 | 1011.5 |
| 20260507195823 | 13 | 303 | 24.1 | 25.7 | 0.00 | 0.00 | 0.00 | 37 | 1011.4 |
| 20260507195321 | 13 | 343 | 22.5 | 25.7 | 0.00 | 0.00 | 0.00 | 38 | 1011.5 |
| 20260507194818 | 13 | 336 | 22.5 | 29.0 | 0.00 | 0.00 | 0.00 | 36 | 1011.7 |
| 20260507194314 | 13 | 294 | 17.7 | 20.9 | 0.00 | 0.00 | 0.00 | 37 | 1011.6 |
| 20260507193811 | 13 | 300 | 19.3 | 24.1 | 0.00 | 0.00 | 0.00 | 36 | 1011.6 |
| 20260507193308 | 13 | 312 | 12.9 | 14.5 | 0.00 | 0.00 | 0.00 | 35 | 1011.7 |
| 20260507192803 | 13 | 314 | 19.3 | 22.5 | 0.00 | 0.00 | 0.00 | 33 | 1011.6 |
| 20260507192301 | 13 | 303 | 14.5 | 20.9 | 0.00 | 0.00 | 0.00 | 36 | 1011.6 |
| 20260507191757 | 13 | 318 | 16.1 | 17.7 | 0.00 | 0.00 | 0.00 | 37 | 1011.7 |
| 20260507191253 | 13 | 302 | 22.5 | 24.1 | 0.00 | 0.00 | 0.00 | 35 | 1011.8 |
| 20260507190750 | 14 | 240 | 24.1 | 33.8 | 0.00 | 0.00 | 0.00 | 34 | 1011.6 |
| 20260507190249 | 13 | 6 | 24.1 | 29.0 | 0.00 | 0.00 | 0.00 | 35 | 1011.6 |
| 20260507185747 | 13 | 359 | 24.1 | 29.0 | 0.00 | 0.00 | 0.00 | 35 | 1011.7 |